Time;durP1;ratioP1;P1;durP2;ratioP2;P2;SDS_P1;SDS_P2;PMS_P1;PMS_P2;Temp;Humidity;BMP_temperature;BMP_pressure;BME280_temperature;BME280_humidity;BME280_pressure;Samples;Min_cycle;Max_cycle;Signal;HPM_P1;HPM_P2
2022/06/07 00:02:42;;;;;;;4.63;4.22;;;;;;;;;;10461364;28;20059;-75
2022/06/07 00:07:43;;;;;;;5.30;4.80;;;;;;;;;;10437103;28;20044;-76
2022/06/07 00:12:43;;;;;;;5.37;4.70;;;;;;;;;;10467988;28;20542;-76
2022/06/07 00:17:44;;;;;;;5.40;4.60;;;;;;;;;;10443896;28;20074;-75
2022/06/07 00:22:44;;;;;;;5.10;4.60;;;;;;;;;;10430404;28;20745;-75
2022/06/07 00:27:45;;;;;;;6.40;4.93;;;;;;;;;;10457119;28;20051;-74
2022/06/07 00:32:46;;;;;;;6.25;5.07;;;;;;;;;;10452864;28;20287;-75
2022/06/07 00:37:46;;;;;;;5.68;4.95;;;;;;;;;;10440393;28;20118;-75
2022/06/07 00:42:46;;;;;;;6.68;5.82;;;;;;;;;;10442413;28;20053;-74
2022/06/07 00:47:50;;;;;;;5.50;4.90;;;;;;;;;;10469842;28;20067;-75
2022/06/07 00:52:50;;;;;;;5.15;4.65;;;;;;;;;;10442462;28;20763;-74
2022/06/07 00:57:52;;;;;;;5.57;5.00;;;;;;;;;;10451771;28;20456;-76
2022/06/07 01:03:06;;;;;;;6.43;5.75;;;;;;;;;;10457945;28;20465;-77
2022/06/07 01:13:36;;;;;;;6.57;5.63;;;;;;;;;;10460835;28;20240;-77
2022/06/07 01:18:50;;;;;;;6.07;5.20;;;;;;;;;;10452687;28;20547;-75
2022/06/07 01:23:56;;;;;;;5.93;5.30;;;;;;;;;;10423005;28;20060;-76
2022/06/07 01:29:03;;;;;;;6.05;5.50;;;;;;;;;;10413218;28;20048;-77
2022/06/07 01:34:03;;;;;;;6.90;5.32;;;;;;;;;;10464798;28;20152;-76
2022/06/07 01:44:35;;;;;;;6.22;5.63;;;;;;;;;;10445230;28;20065;-76
2022/06/07 01:49:36;;;;;;;7.18;5.32;;;;;;;;;;10437453;28;20182;-76
2022/06/07 01:54:36;;;;;;;6.45;5.28;;;;;;;;;;10458807;28;20045;-75
2022/06/07 01:59:40;;;;;;;5.93;5.43;;;;;;;;;;10466209;28;20071;-75
2022/06/07 02:04:48;;;;;;;5.43;4.93;;;;;;;;;;10436556;28;20053;-75
2022/06/07 02:09:50;;;;;;;5.77;5.23;;;;;;;;;;10459589;28;20048;-75
2022/06/07 02:14:53;;;;;;;5.03;4.53;;;;;;;;;;10448500;28;20076;-78
2022/06/07 02:19:53;;;;;;;5.07;4.57;;;;;;;;;;10456860;28;20120;-74
2022/06/07 02:24:53;;;;;;;5.25;4.70;;;;;;;;;;10457052;28;20270;-74
2022/06/07 02:29:54;;;;;;;5.63;4.90;;;;;;;;;;10472396;28;20053;-77
2022/06/07 02:34:56;;;;;;;6.82;4.38;;;;;;;;;;10452378;28;20271;-76
2022/06/07 02:39:57;;;;;;;5.75;4.57;;;;;;;;;;10431246;28;20052;-74
2022/06/07 02:44:58;;;;;;;5.18;4.68;;;;;;;;;;10464545;28;20569;-75
2022/06/07 02:49:58;;;;;;;4.75;4.35;;;;;;;;;;10441166;28;20102;-74
2022/06/07 02:54:59;;;;;;;4.88;4.45;;;;;;;;;;10451231;28;20122;-76
2022/06/07 03:00:03;;;;;;;4.83;4.33;;;;;;;;;;10469212;28;20060;-76
2022/06/07 03:05:04;;;;;;;5.67;4.67;;;;;;;;;;10470392;28;20120;-76
2022/06/07 03:10:06;;;;;;;5.47;4.57;;;;;;;;;;10475250;28;20067;-76
2022/06/07 03:15:08;;;;;;;;;;;;;;;;;;10467578;28;20044;-75
2022/06/07 03:20:09;;;;;;;4.78;4.38;;;;;;;;;;10442929;28;19966;-75
2022/06/07 03:25:11;;;;;;;5.32;4.82;;;;;;;;;;10454448;28;20041;-73
2022/06/07 03:30:13;;;;;;;5.38;4.88;;;;;;;;;;10454289;28;20053;-75
2022/06/07 03:35:17;;;;;;;5.78;5.07;;;;;;;;;;10468645;28;20482;-75
2022/06/07 03:40:43;;;;;;;5.75;5.05;;;;;;;;;;10465044;28;20052;-77
2022/06/07 03:45:40;;;;;;;6.43;5.80;;;;;;;;;;10477912;28;20134;-75
2022/06/07 03:50:45;;;;;;;6.00;5.40;;;;;;;;;;10445228;28;20419;-76
2022/06/07 03:55:47;;;;;;;6.13;5.53;;;;;;;;;;10444416;28;20495;-76
2022/06/07 04:00:50;;;;;;;7.00;5.85;;;;;;;;;;10455735;28;20501;-76
2022/06/07 04:05:51;;;;;;;7.25;6.05;;;;;;;;;;10461812;28;20041;-75
2022/06/07 04:10:58;;;;;;;7.13;5.82;;;;;;;;;;10447925;28;20075;-74
2022/06/07 04:16:12;;;;;;;6.63;6.03;;;;;;;;;;10454696;28;20048;-76
2022/06/07 04:21:19;;;;;;;5.88;5.20;;;;;;;;;;10447819;28;20068;-74
2022/06/07 04:26:21;;;;;;;5.20;4.72;;;;;;;;;;10445953;28;20134;-75
2022/06/07 04:31:24;;;;;;;6.35;5.13;;;;;;;;;;10459196;28;20118;-75
2022/06/07 04:36:27;;;;;;;6.30;5.10;;;;;;;;;;10451217;28;20064;-74
2022/06/07 04:41:30;;;;;;;5.18;4.63;;;;;;;;;;10446199;28;20045;-75
2022/06/07 04:46:36;;;;;;;5.40;4.57;;;;;;;;;;10444401;28;20118;-76
2022/06/07 04:51:39;;;;;;;5.70;5.10;;;;;;;;;;10444994;28;20045;-75
2022/06/07 04:56:46;;;;;;;4.93;4.45;;;;;;;;;;10448380;28;20071;-73
2022/06/07 05:01:47;;;;;;;4.03;3.63;;;;;;;;;;10443268;28;20139;-75
2022/06/07 05:06:55;;;;;;;4.75;4.35;;;;;;;;;;10429182;28;20047;-76
2022/06/07 05:12:02;;;;;;;4.72;3.63;;;;;;;;;;10463075;28;20376;-75
2022/06/07 05:17:07;;;;;;;3.83;3.50;;;;;;;;;;10427036;28;20082;-75
2022/06/07 05:22:12;;;;;;;6.68;4.30;;;;;;;;;;10448267;28;20179;-75
2022/06/07 05:27:20;;;;;;;4.28;3.90;;;;;;;;;;10457858;28;20040;-75
2022/06/07 05:32:21;;;;;;;4.80;4.28;;;;;;;;;;10468401;28;20526;-77
2022/06/07 05:37:25;;;;;;;4.10;3.70;;;;;;;;;;10444245;28;20041;-75
2022/06/07 05:42:43;;;;;;;4.15;3.55;;;;;;;;;;10458994;28;20039;-76
2022/06/07 05:47:47;;;;;;;4.72;3.50;;;;;;;;;;10452846;28;20064;-77
2022/06/07 05:52:48;;;;;;;4.95;4.50;;;;;;;;;;10457932;28;20071;-76
2022/06/07 05:57:51;;;;;;;3.80;3.40;;;;;;;;;;10458838;28;20045;-76
2022/06/07 06:02:52;;;;;;;4.68;3.78;;;;;;;;;;10458956;28;20100;-76
2022/06/07 06:13:27;;;;;;;4.20;3.00;;;;;;;;;;10472897;28;20493;-76
2022/06/07 06:18:27;;;;;;;3.25;2.95;;;;;;;;;;10462760;28;20037;-76
2022/06/07 06:23:28;;;;;;;2.83;2.42;;;;;;;;;;10457255;28;20048;-78
2022/06/07 06:28:28;;;;;;;3.47;3.00;;;;;;;;;;10495011;28;20037;-78
2022/06/07 06:33:30;;;;;;;4.10;2.63;;;;;;;;;;10488191;28;20053;-77
2022/06/07 06:38:31;;;;;;;2.60;2.40;;;;;;;;;;10497269;28;20104;-77
2022/06/07 06:43:33;;;;;;;3.73;2.50;;;;;;;;;;10502167;28;20092;-78
2022/06/07 06:48:49;;;;;;;4.22;2.33;;;;;;;;;;10460486;28;20488;-76
2022/06/07 06:53:50;;;;;;;2.20;2.00;;;;;;;;;;10472450;28;20119;-78
2022/06/07 06:59:09;;;;;;;4.22;3.08;;;;;;;;;;10471881;28;20045;-83
2022/06/07 07:04:43;;;;;;;2.60;1.95;;;;;;;;;;10477533;28;20045;-78
2022/06/07 07:09:44;;;;;;;2.15;1.80;;;;;;;;;;10471918;28;20080;-74
2022/06/07 07:14:48;;;;;;;3.55;2.15;;;;;;;;;;10477927;28;20052;-78
2022/06/07 07:19:55;;;;;;;2.67;1.63;;;;;;;;;;10464934;28;20126;-76
2022/06/07 07:24:58;;;;;;;2.00;1.80;;;;;;;;;;10463181;28;20040;-75
2022/06/07 07:29:59;;;;;;;2.83;2.60;;;;;;;;;;10476794;28;20049;-78
2022/06/07 07:35:03;;;;;;;3.55;2.92;;;;;;;;;;10453081;28;20106;-76
2022/06/07 07:40:10;;;;;;;4.00;2.60;;;;;;;;;;10462084;28;20053;-75
2022/06/07 07:45:15;;;;;;;2.58;2.00;;;;;;;;;;10474429;28;20155;-75
2022/06/07 07:50:18;;;;;;;2.30;2.10;;;;;;;;;;10476114;28;20056;-75
2022/06/07 07:55:24;;;;;;;29.02;10.10;;;;;;;;;;10467312;28;20076;-73
2022/06/07 08:00:28;;;;;;;2.38;2.03;;;;;;;;;;10478799;28;20048;-75
2022/06/07 08:05:37;;;;;;;3.67;2.30;;;;;;;;;;10460838;28;20139;-75
2022/06/07 08:10:38;;;;;;;2.80;1.80;;;;;;;;;;10438557;28;20049;-74
2022/06/07 08:15:39;;;;;;;3.17;1.63;;;;;;;;;;10462192;28;20045;-75
2022/06/07 08:20:39;;;;;;;2.23;1.50;;;;;;;;;;10464157;28;20045;-76
2022/06/07 08:25:39;;;;;;;2.20;1.90;;;;;;;;;;10464113;28;20275;-77
2022/06/07 08:30:44;;;;;;;2.65;1.95;;;;;;;;;;10451339;28;20049;-75
2022/06/07 08:41:05;;;;;;;1.92;1.65;;;;;;;;;;10463304;28;20051;-78
2022/06/07 08:46:07;;;;;;;4.20;1.70;;;;;;;;;;10462938;28;20053;-78
2022/06/07 08:51:16;;;;;;;1.48;1.30;;;;;;;;;;10449082;28;20578;-78
2022/06/07 08:56:18;;;;;;;1.85;1.52;;;;;;;;;;10491497;28;20048;-80
2022/06/07 09:01:22;;;;;;;1.92;1.52;;;;;;;;;;10514171;28;20128;-77
2022/06/07 09:06:25;;;;;;;1.92;1.42;;;;;;;;;;10499514;28;20064;-77
2022/06/07 09:16:46;;;;;;;3.78;2.25;;;;;;;;;;10473392;28;20057;-77
2022/06/07 09:21:48;;;;;;;3.13;1.85;;;;;;;;;;10456458;28;20056;-79
2022/06/07 09:26:48;;;;;;;2.20;1.30;;;;;;;;;;10440220;28;20048;-75
2022/06/07 09:31:51;;;;;;;2.50;1.10;;;;;;;;;;10451798;28;20095;-78
2022/06/07 09:37:12;;;;;;;3.25;1.80;;;;;;;;;;10441055;28;20103;-76
2022/06/07 09:42:26;;;;;;;1.45;1.00;;;;;;;;;;10473970;28;20048;-77
2022/06/07 09:47:28;;;;;;;3.80;2.13;;;;;;;;;;10460046;28;20130;-78
2022/06/07 09:52:41;;;;;;;2.83;1.48;;;;;;;;;;10429529;28;20057;-77
2022/06/07 09:57:42;;;;;;;2.33;1.27;;;;;;;;;;10438356;28;20122;-77
2022/06/07 10:02:56;;;;;;;4.43;2.00;;;;;;;;;;10464596;28;20091;-77
2022/06/07 10:08:17;;;;;;;2.38;1.38;;;;;;;;;;10480522;28;20437;-78
2022/06/07 10:13:33;;;;;;;1.45;1.25;;;;;;;;;;10449472;28;20128;-77
2022/06/07 10:18:54;;;;;;;2.35;1.45;;;;;;;;;;10476867;28;20052;-79
2022/06/07 10:24:08;;;;;;;4.97;3.08;;;;;;;;;;10483208;28;20040;-75
2022/06/07 10:29:17;;;;;;;4.05;2.30;;;;;;;;;;10479155;28;20049;-78
2022/06/07 10:34:24;;;;;;;1.55;1.40;;;;;;;;;;10464876;28;20403;-76
2022/06/07 10:39:42;;;;;;;1.05;0.95;;;;;;;;;;10481921;28;20053;-76
2022/06/07 10:44:47;;;;;;;1.48;1.10;;;;;;;;;;10485065;28;20044;-76
2022/06/07 10:49:51;;;;;;;1.73;1.17;;;;;;;;;;10473986;28;20068;-77
2022/06/07 10:55:03;;;;;;;2.17;1.65;;;;;;;;;;10469437;28;20131;-76
2022/06/07 11:00:18;;;;;;;3.15;1.10;;;;;;;;;;10470861;28;20052;-78
2022/06/07 11:10:44;;;;;;;3.83;1.70;;;;;;;;;;10496507;28;20178;-77
2022/06/07 11:15:47;;;;;;;2.03;1.40;;;;;;;;;;10475209;28;20049;-76
2022/06/07 11:20:50;;;;;;;2.13;1.23;;;;;;;;;;10493710;28;20036;-76
2022/06/07 11:26:04;;;;;;;2.72;1.50;;;;;;;;;;10456485;28;20041;-76
2022/06/07 11:31:25;;;;;;;2.25;1.25;;;;;;;;;;10455706;28;20500;-79
2022/06/07 11:36:27;;;;;;;2.63;1.25;;;;;;;;;;10465766;28;20141;-76
2022/06/07 11:41:40;;;;;;;2.65;1.65;;;;;;;;;;10457997;28;20542;-77
2022/06/07 11:46:57;;;;;;;9.50;6.70;;;;;;;;;;10467351;28;20045;-78
2022/06/07 11:52:13;;;;;;;2.28;0.90;;;;;;;;;;10477292;28;20147;-75
2022/06/07 11:57:32;;;;;;;2.55;1.42;;;;;;;;;;10474011;28;20109;-77
2022/06/07 12:02:33;;;;;;;3.45;1.83;;;;;;;;;;10477606;28;20090;-74
2022/06/07 12:07:51;;;;;;;2.93;1.07;;;;;;;;;;10477531;28;20094;-74
2022/06/07 12:12:56;;;;;;;3.17;2.03;;;;;;;;;;10475380;28;20065;-72
2022/06/07 12:18:15;;;;;;;4.05;2.53;;;;;;;;;;10454589;28;20044;-72
2022/06/07 12:23:22;;;;;;;2.30;1.15;;;;;;;;;;10429759;28;20054;-73
2022/06/07 12:28:24;;;;;;;2.03;1.17;;;;;;;;;;10457557;28;20151;-74
2022/06/07 12:33:29;;;;;;;2.88;1.08;;;;;;;;;;10478256;28;20147;-75
2022/06/07 12:38:30;;;;;;;1.15;0.80;;;;;;;;;;10462745;28;20045;-73
2022/06/07 12:43:32;;;;;;;1.95;1.27;;;;;;;;;;10463627;28;20063;-76
2022/06/07 12:48:33;;;;;;;3.03;1.13;;;;;;;;;;10461737;28;20041;-74
2022/06/07 12:53:36;;;;;;;3.35;1.30;;;;;;;;;;10475460;28;20045;-76
2022/06/07 12:58:41;;;;;;;2.83;1.38;;;;;;;;;;10430956;28;20045;-77
2022/06/07 13:03:43;;;;;;;1.10;0.98;;;;;;;;;;10456155;28;20056;-76
2022/06/07 13:08:54;;;;;;;1.73;1.20;;;;;;;;;;10476006;28;20037;-77
2022/06/07 13:13:55;;;;;;;1.85;1.10;;;;;;;;;;10466580;28;20061;-74
2022/06/07 13:18:57;;;;;;;9.43;5.10;;;;;;;;;;10476306;28;20044;-79
2022/06/07 13:23:58;;;;;;;4.22;2.67;;;;;;;;;;10455080;28;20121;-76
2022/06/07 13:29:07;;;;;;;3.45;1.83;;;;;;;;;;10469922;28;20060;-75
2022/06/07 13:34:26;;;;;;;2.35;1.27;;;;;;;;;;10475786;28;20062;-75
2022/06/07 13:39:27;;;;;;;1.42;1.10;;;;;;;;;;10470069;28;20045;-76
2022/06/07 13:44:35;;;;;;;2.70;1.27;;;;;;;;;;10491743;28;20093;-75
2022/06/07 13:54:55;;;;;;;3.45;1.10;;;;;;;;;;10487352;28;20037;-75
2022/06/07 13:59:58;;;;;;;1.10;1.00;;;;;;;;;;10462810;28;20459;-75
2022/06/07 14:04:58;;;;;;;2.15;1.40;;;;;;;;;;10488511;28;20095;-72
2022/06/07 14:09:58;;;;;;;1.90;1.00;;;;;;;;;;10492337;28;20095;-73
2022/06/07 14:14:59;;;;;;;1.47;1.10;;;;;;;;;;10455184;28;20287;-73
2022/06/07 14:19:59;;;;;;;1.30;1.20;;;;;;;;;;10469299;28;20044;-72
2022/06/07 14:25:00;;;;;;;1.40;0.93;;;;;;;;;;10472693;28;20049;-74
2022/06/07 14:30:02;;;;;;;;;;;;;;;;;;10468883;28;20103;-73
2022/06/07 14:35:05;;;;;;;1.48;1.15;;;;;;;;;;10434508;28;19925;-76
2022/06/07 14:40:13;;;;;;;3.80;1.80;;;;;;;;;;10422091;28;20044;-74
2022/06/07 14:45:15;;;;;;;1.30;1.00;;;;;;;;;;10435844;28;20117;-74
2022/06/07 14:50:19;;;;;;;2.83;1.35;;;;;;;;;;10459500;28;20138;-74
2022/06/07 14:55:22;;;;;;;0.93;0.93;;;;;;;;;;10473209;28;20101;-74
2022/06/07 15:00:23;;;;;;;2.03;1.20;;;;;;;;;;10473794;28;20489;-75
2022/06/07 15:05:25;;;;;;;1.80;1.23;;;;;;;;;;10479297;28;20044;-73
2022/06/07 15:10:27;;;;;;;3.42;1.40;;;;;;;;;;10450085;28;20068;-74
2022/06/07 15:15:27;;;;;;;;;;;;;;;;;;10472504;28;20033;-73
2022/06/07 15:20:30;;;;;;;1.27;1.17;;;;;;;;;;10463875;28;20423;-75
2022/06/07 15:25:31;;;;;;;1.67;1.02;;;;;;;;;;10458449;28;20048;-74
2022/06/07 15:30:31;;;;;;;3.50;1.20;;;;;;;;;;10460588;28;20064;-73
2022/06/07 15:35:33;;;;;;;2.23;1.20;;;;;;;;;;10468781;28;20041;-75
2022/06/07 15:40:34;;;;;;;1.45;1.20;;;;;;;;;;10446823;28;20306;-76
2022/06/07 15:45:38;;;;;;;1.80;1.35;;;;;;;;;;10454445;28;20049;-75
2022/06/07 15:50:41;;;;;;;2.55;1.52;;;;;;;;;;10465368;28;20056;-76
2022/06/07 15:55:42;;;;;;;1.60;1.40;;;;;;;;;;10472382;28;20563;-75
2022/06/07 16:00:43;;;;;;;2.05;1.45;;;;;;;;;;10445477;28;20061;-75
2022/06/07 16:05:43;;;;;;;3.43;1.40;;;;;;;;;;10472734;28;20044;-75
2022/06/07 16:10:44;;;;;;;2.03;1.25;;;;;;;;;;10460055;28;20051;-74
2022/06/07 16:15:46;;;;;;;1.30;1.00;;;;;;;;;;10490512;28;20152;-75
2022/06/07 16:20:47;;;;;;;1.27;1.10;;;;;;;;;;10455871;28;20133;-75
2022/06/07 16:25:47;;;;;;;1.60;1.27;;;;;;;;;;10466794;28;20060;-77
2022/06/07 16:36:11;;;;;;;2.00;1.23;;;;;;;;;;10468706;28;20060;-76
2022/06/07 16:41:13;;;;;;;1.10;1.00;;;;;;;;;;10466927;28;20052;-78
2022/06/07 16:46:14;;;;;;;2.58;1.65;;;;;;;;;;10464583;28;20159;-78
2022/06/07 16:51:15;;;;;;;11.43;9.13;;;;;;;;;;10466010;28;20052;-77
2022/06/07 16:56:16;;;;;;;4.60;2.25;;;;;;;;;;10443683;28;20159;-76
2022/06/07 17:01:16;;;;;;;1.60;1.27;;;;;;;;;;10454640;28;20082;-77
2022/06/07 17:06:21;;;;;;;2.13;1.83;;;;;;;;;;10465372;28;20548;-78
2022/06/07 17:11:24;;;;;;;1.95;1.10;;;;;;;;;;10477687;28;20129;-77
2022/06/07 17:16:24;;;;;;;3.10;1.10;;;;;;;;;;10460415;28;20137;-77
2022/06/07 17:21:25;;;;;;;1.70;1.38;;;;;;;;;;10466823;28;20084;-77
2022/06/07 17:26:25;;;;;;;1.65;1.25;;;;;;;;;;10471392;28;20097;-77
2022/06/07 17:31:26;;;;;;;1.73;1.10;;;;;;;;;;10424252;28;20049;-75
2022/06/07 17:36:27;;;;;;;2.42;1.00;;;;;;;;;;10445758;28;20040;-76
2022/06/07 17:41:28;;;;;;;3.75;2.95;;;;;;;;;;10469927;28;20455;-77
2022/06/07 17:46:30;;;;;;;3.50;1.52;;;;;;;;;;10443235;28;20507;-77
2022/06/07 17:51:30;;;;;;;1.15;1.00;;;;;;;;;;10459544;28;20142;-77
2022/06/07 17:56:32;;;;;;;1.83;1.17;;;;;;;;;;10464319;28;20125;-72
2022/06/07 18:01:33;;;;;;;2.45;1.25;;;;;;;;;;10490198;28;20129;-73
2022/06/07 18:06:33;;;;;;;2.08;1.40;;;;;;;;;;10480557;28;20098;-73
2022/06/07 18:11:34;;;;;;;1.60;1.30;;;;;;;;;;10453097;28;20096;-72
2022/06/07 18:16:38;;;;;;;1.30;1.20;;;;;;;;;;10441076;28;20045;-77
2022/06/07 18:21:39;;;;;;;2.22;1.27;;;;;;;;;;10485704;28;20293;-76
2022/06/07 18:26:39;;;;;;;1.55;1.25;;;;;;;;;;10478122;28;20500;-76
2022/06/07 18:31:40;;;;;;;1.42;1.20;;;;;;;;;;10473743;28;20110;-76
2022/06/07 18:36:40;;;;;;;3.38;1.50;;;;;;;;;;10476412;28;20044;-77
2022/06/07 18:41:42;;;;;;;2.63;1.80;;;;;;;;;;10462879;28;20037;-78
2022/06/07 18:46:43;;;;;;;2.43;1.60;;;;;;;;;;10470928;28;20101;-75
2022/06/07 18:51:43;;;;;;;1.40;1.30;;;;;;;;;;10482028;28;20050;-75
2022/06/07 18:56:45;;;;;;;1.50;1.40;;;;;;;;;;10467658;28;20045;-76
2022/06/07 19:01:46;;;;;;;1.53;1.20;;;;;;;;;;10455679;28;20378;-78
2022/06/07 19:06:48;;;;;;;1.50;1.20;;;;;;;;;;10479846;28;20052;-78
2022/06/07 19:11:51;;;;;;;1.88;1.35;;;;;;;;;;10450271;28;20884;-76
2022/06/07 19:16:53;;;;;;;2.30;2.10;;;;;;;;;;10475465;28;20540;-80
2022/06/07 19:21:53;;;;;;;;;;;;;;;;;;10467146;28;20064;-79
2022/06/07 19:26:55;;;;;;;2.72;2.10;;;;;;;;;;10475752;28;20679;-81
2022/06/07 19:31:56;;;;;;;2.83;2.40;;;;;;;;;;10481837;28;20052;-79
2022/06/07 19:36:57;;;;;;;3.80;3.15;;;;;;;;;;10445857;28;20067;-78
2022/06/07 19:41:57;;;;;;;2.83;2.47;;;;;;;;;;10476256;28;20771;-79
2022/06/07 19:46:58;;;;;;;2.42;2.22;;;;;;;;;;10459283;28;20052;-78
2022/06/07 19:51:59;;;;;;;3.15;2.40;;;;;;;;;;10469366;28;20082;-79
2022/06/07 19:57:02;;;;;;;2.53;2.07;;;;;;;;;;10452172;28;20748;-79
2022/06/07 20:02:05;;;;;;;2.20;2.00;;;;;;;;;;10489012;28;20036;-77
2022/06/07 20:07:06;;;;;;;2.42;1.95;;;;;;;;;;10477116;28;20045;-75
2022/06/07 20:12:09;;;;;;;2.53;2.33;;;;;;;;;;10461028;28;20094;-74
2022/06/07 20:17:10;;;;;;;3.50;2.20;;;;;;;;;;10451115;28;20040;-74
2022/06/07 20:22:12;;;;;;;2.22;2.03;;;;;;;;;;10439579;28;20052;-77
2022/06/07 20:27:14;;;;;;;2.72;2.30;;;;;;;;;;10455935;28;20064;-77
2022/06/07 20:32:14;;;;;;;4.30;2.10;;;;;;;;;;10455495;28;20136;-76
2022/06/07 20:37:16;;;;;;;3.80;1.90;;;;;;;;;;10444943;28;20080;-78
2022/06/07 20:42:17;;;;;;;2.65;2.28;;;;;;;;;;10457687;28;20048;-73
2022/06/07 20:47:17;;;;;;;2.30;1.83;;;;;;;;;;10460934;28;20048;-73
2022/06/07 20:52:18;;;;;;;2.72;1.90;;;;;;;;;;10450533;28;20173;-73
2022/06/07 20:57:20;;;;;;;2.38;1.50;;;;;;;;;;10464126;28;20102;-72
2022/06/07 21:02:23;;;;;;;2.50;2.10;;;;;;;;;;10455146;28;20053;-73
2022/06/07 21:07:24;;;;;;;2.80;1.42;;;;;;;;;;10464205;28;20048;-73
2022/06/07 21:12:25;;;;;;;1.50;1.40;;;;;;;;;;10456583;28;20049;-72
2022/06/07 21:17:26;;;;;;;1.33;1.23;;;;;;;;;;10467502;28;20396;-74
2022/06/07 21:22:26;;;;;;;1.65;1.30;;;;;;;;;;10438994;28;20041;-72
2022/06/07 21:27:27;;;;;;;2.28;1.60;;;;;;;;;;10446957;28;20050;-73
2022/06/07 21:32:28;;;;;;;2.40;1.50;;;;;;;;;;10465869;28;20471;-71
2022/06/07 21:37:28;;;;;;;1.50;1.40;;;;;;;;;;10450262;28;20045;-72
2022/06/07 21:42:29;;;;;;;2.20;2.00;;;;;;;;;;10456227;28;20041;-74
2022/06/07 21:47:29;;;;;;;2.13;1.70;;;;;;;;;;10441126;28;20052;-76
2022/06/07 21:52:30;;;;;;;1.55;1.40;;;;;;;;;;10467008;28;20053;-75
2022/06/07 21:57:30;;;;;;;2.00;1.70;;;;;;;;;;10457433;28;20163;-74
2022/06/07 22:02:31;;;;;;;1.90;1.30;;;;;;;;;;10465289;28;20276;-72
2022/06/07 22:07:31;;;;;;;1.40;1.30;;;;;;;;;;10456337;28;20132;-73
2022/06/07 22:12:32;;;;;;;2.15;1.30;;;;;;;;;;10462737;28;20052;-74
2022/06/07 22:17:33;;;;;;;1.50;1.17;;;;;;;;;;10460281;28;20071;-74
2022/06/07 22:22:34;;;;;;;1.58;1.48;;;;;;;;;;10475725;28;20511;-76
2022/06/07 22:27:35;;;;;;;1.83;1.73;;;;;;;;;;10481730;28;20155;-76
2022/06/07 22:32:36;;;;;;;2.50;1.83;;;;;;;;;;10488594;28;20067;-73
2022/06/07 22:37:36;;;;;;;2.60;1.80;;;;;;;;;;10486973;28;20048;-74
2022/06/07 22:42:37;;;;;;;1.60;1.50;;;;;;;;;;10471427;28;20419;-75
2022/06/07 22:47:38;;;;;;;1.88;1.67;;;;;;;;;;10476178;28;20144;-74
2022/06/07 22:52:40;;;;;;;1.75;1.65;;;;;;;;;;10464194;28;20053;-74
2022/06/07 22:57:43;;;;;;;2.55;1.58;;;;;;;;;;10462270;28;20041;-79
2022/06/07 23:02:46;;;;;;;2.00;1.70;;;;;;;;;;10472805;28;20048;-73
2022/06/07 23:07:47;;;;;;;;;;;;;;;;;;10455766;28;20041;-73
2022/06/07 23:12:47;;;;;;;1.95;1.73;;;;;;;;;;10468561;28;20392;-74
2022/06/07 23:17:48;;;;;;;2.00;1.83;;;;;;;;;;10475101;28;20681;-72
2022/06/07 23:22:49;;;;;;;1.92;1.83;;;;;;;;;;10475814;28;20045;-72
2022/06/07 23:27:50;;;;;;;2.97;1.90;;;;;;;;;;10468854;28;20404;-73
2022/06/07 23:32:50;;;;;;;1.90;1.80;;;;;;;;;;10463475;28;20557;-74
2022/06/07 23:37:51;;;;;;;1.77;1.67;;;;;;;;;;10475849;28;20723;-71
2022/06/07 23:42:51;;;;;;;2.73;2.00;;;;;;;;;;10459902;28;20060;-73
2022/06/07 23:47:57;;;;;;;2.10;1.90;;;;;;;;;;10447952;28;20049;-73
2022/06/07 23:52:59;;;;;;;2.15;1.63;;;;;;;;;;10461178;28;20094;-73
2022/06/07 23:58:00;;;;;;;2.10;1.60;;;;;;;;;;10471012;28;20075;-72
